Time;durP1;ratioP1;P1;durP2;ratioP2;P2;SDS_P1;SDS_P2;PMS_P1;PMS_P2;Temp;Humidity;BMP_temperature;BMP_pressure;BME280_temperature;BME280_humidity;BME280_pressure;Samples;Min_cycle;Max_cycle;Signal;HPM_P1;HPM_P2
2024/03/17 00:00:45;;;;;;;19.40;11.50;;;;;;;;;;5111641;28;20451;-74
2024/03/17 00:03:11;;;;;;;22.73;11.88;;;;;;;;;;5111344;28;20375;-73
2024/03/17 00:05:37;;;;;;;23.60;13.25;;;;;;;;;;5112542;28;20491;-73
2024/03/17 00:08:06;;;;;;;22.90;10.73;;;;;;;;;;5112655;28;20032;-73
2024/03/17 00:10:33;;;;;;;18.08;9.40;;;;;;;;;;5112826;28;20032;-73
2024/03/17 00:12:59;;;;;;;17.00;8.98;;;;;;;;;;5111170;28;20020;-73
2024/03/17 00:15:25;;;;;;;13.45;8.05;;;;;;;;;;5111474;28;20035;-74
2024/03/17 00:17:51;;;;;;;19.27;9.50;;;;;;;;;;5111273;28;20493;-73
2024/03/17 00:20:20;;;;;;;18.67;9.25;;;;;;;;;;5111366;28;20024;-74
2024/03/17 00:22:48;;;;;;;14.63;10.07;;;;;;;;;;5112720;28;20076;-74
2024/03/17 00:25:14;;;;;;;18.42;9.15;;;;;;;;;;5112338;28;20016;-74
2024/03/17 00:27:43;;;;;;;22.23;9.80;;;;;;;;;;5111186;28;20118;-73
2024/03/17 00:30:12;;;;;;;18.45;9.55;;;;;;;;;;5111856;28;20024;-74
2024/03/17 00:32:38;;;;;;;17.05;8.55;;;;;;;;;;5112501;28;20047;-73
2024/03/17 00:35:05;;;;;;;20.95;8.70;;;;;;;;;;5112282;28;20016;-73
2024/03/17 00:37:31;;;;;;;15.82;8.45;;;;;;;;;;5111104;28;20027;-73
2024/03/17 00:39:57;;;;;;;18.48;8.88;;;;;;;;;;5111166;28;20035;-73
2024/03/17 00:42:23;;;;;;;13.95;8.48;;;;;;;;;;5111098;28;20015;-74
2024/03/17 00:44:49;;;;;;;16.92;8.25;;;;;;;;;;5112087;28;20420;-73
2024/03/17 00:47:15;;;;;;;17.45;8.60;;;;;;;;;;5111869;28;20023;-73
2024/03/17 00:49:41;;;;;;;16.67;8.32;;;;;;;;;;5112103;28;20409;-73
2024/03/17 00:52:07;;;;;;;14.00;7.68;;;;;;;;;;5112207;28;20039;-74
2024/03/17 00:54:33;;;;;;;18.50;7.72;;;;;;;;;;5111015;28;20024;-74
2024/03/17 00:56:59;;;;;;;16.55;7.60;;;;;;;;;;5112072;28;20081;-74
2024/03/17 00:59:25;;;;;;;14.52;8.05;;;;;;;;;;5112290;28;20362;-74
2024/03/17 01:01:52;;;;;;;13.23;8.02;;;;;;;;;;5111977;28;20031;-74
2024/03/17 01:04:18;;;;;;;16.38;8.40;;;;;;;;;;5111849;28;20483;-74
2024/03/17 01:06:44;;;;;;;22.67;8.25;;;;;;;;;;5110415;28;20040;-73
2024/03/17 01:09:10;;;;;;;20.50;8.35;;;;;;;;;;5112245;28;20038;-73
2024/03/17 01:11:36;;;;;;;16.23;8.07;;;;;;;;;;5112188;28;20020;-73
2024/03/17 01:14:02;;;;;;;18.05;8.15;;;;;;;;;;5112017;28;20027;-73
2024/03/17 01:16:28;;;;;;;18.83;7.63;;;;;;;;;;5110464;28;20023;-73
2024/03/17 01:18:54;;;;;;;17.35;8.75;;;;;;;;;;5110771;28;20024;-73
2024/03/17 01:21:20;;;;;;;17.88;8.20;;;;;;;;;;5112169;28;20093;-73
2024/03/17 01:23:49;;;;;;;15.98;7.55;;;;;;;;;;5112171;28;20027;-73
2024/03/17 01:26:15;;;;;;;17.08;7.90;;;;;;;;;;5111925;28;20016;-73
2024/03/17 01:28:41;;;;;;;15.18;7.88;;;;;;;;;;5112031;28;20106;-73
2024/03/17 01:31:07;;;;;;;14.43;7.90;;;;;;;;;;5110666;28;20359;-74
2024/03/17 01:33:34;;;;;;;18.65;8.52;;;;;;;;;;5111015;28;20024;-73
2024/03/17 01:36:00;;;;;;;13.40;7.63;;;;;;;;;;5111730;28;20019;-74
2024/03/17 01:38:26;;;;;;;18.77;8.85;;;;;;;;;;5111722;28;20023;-74
2024/03/17 01:40:52;;;;;;;16.23;9.52;;;;;;;;;;5111929;28;20352;-74
2024/03/17 01:43:18;;;;;;;17.52;8.65;;;;;;;;;;5114171;28;20030;-74
2024/03/17 01:45:44;;;;;;;16.40;8.52;;;;;;;;;;5115554;28;20051;-74
2024/03/17 01:48:15;;;;;;;15.82;8.45;;;;;;;;;;5115126;28;20431;-74
2024/03/17 01:50:41;;;;;;;15.27;8.13;;;;;;;;;;5114074;28;20028;-74
2024/03/17 01:53:08;;;;;;;17.17;8.18;;;;;;;;;;5114844;28;20031;-74
2024/03/17 01:55:34;;;;;;;14.13;7.03;;;;;;;;;;5115333;28;20455;-73
2024/03/17 01:58:00;;;;;;;17.30;8.95;;;;;;;;;;5114842;28;20028;-73
2024/03/17 02:00:27;;;;;;;22.58;9.02;;;;;;;;;;5114998;28;20097;-73
2024/03/17 02:02:53;;;;;;;18.80;8.10;;;;;;;;;;5115174;28;20047;-73
2024/03/17 02:05:19;;;;;;;16.80;8.68;;;;;;;;;;5113469;28;20047;-73
2024/03/17 02:07:45;;;;;;;18.58;9.10;;;;;;;;;;5115096;28;20020;-73
2024/03/17 02:10:11;;;;;;;20.42;9.18;;;;;;;;;;5114793;28;20031;-73
2024/03/17 02:12:37;;;;;;;18.92;8.32;;;;;;;;;;5115026;28;20023;-73
2024/03/17 02:15:05;;;;;;;18.98;8.68;;;;;;;;;;5113380;28;20026;-73
2024/03/17 02:17:31;;;;;;;21.10;8.48;;;;;;;;;;5114938;27;20024;-75
2024/03/17 02:19:57;;;;;;;12.98;8.02;;;;;;;;;;5113569;28;20031;-75
2024/03/17 02:22:23;;;;;;;15.30;8.88;;;;;;;;;;5114649;28;20395;-74
2024/03/17 02:24:49;;;;;;;16.83;9.07;;;;;;;;;;5113475;28;20015;-74
2024/03/17 02:27:15;;;;;;;18.88;9.02;;;;;;;;;;5114117;28;20046;-74
2024/03/17 02:29:41;;;;;;;19.50;8.75;;;;;;;;;;5113420;28;20535;-73
2024/03/17 02:32:08;;;;;;;17.65;8.38;;;;;;;;;;5114493;28;20040;-75
2024/03/17 02:34:37;;;;;;;15.27;9.07;;;;;;;;;;5114822;28;20379;-75
2024/03/17 02:37:04;;;;;;;18.63;9.05;;;;;;;;;;5114454;28;20157;-75
2024/03/17 02:39:39;;;;;;;15.88;8.05;;;;;;;;;;5112985;28;20031;-73
2024/03/17 02:42:09;;;;;;;21.23;9.60;;;;;;;;;;5114523;28;20088;-74
2024/03/17 02:44:35;;;;;;;18.63;9.10;;;;;;;;;;5114427;28;20367;-73
2024/03/17 02:47:04;;;;;;;16.92;8.63;;;;;;;;;;5114080;28;20253;-74
2024/03/17 02:49:49;;;;;;;16.55;8.95;;;;;;;;;;5112804;28;20024;-72
2024/03/17 02:52:15;;;;;;;16.95;7.90;;;;;;;;;;5114389;28;20026;-73
2024/03/17 02:54:42;;;;;;;14.98;9.10;;;;;;;;;;5112825;28;20026;-75
2024/03/17 02:57:08;;;;;;;21.58;9.60;;;;;;;;;;5115322;28;20027;-74
2024/03/17 02:59:34;;;;;;;15.55;7.82;;;;;;;;;;5113572;28;20028;-74
2024/03/17 03:02:00;;;;;;;14.82;7.95;;;;;;;;;;5113860;28;20111;-74
2024/03/17 03:04:27;;;;;;;17.55;8.68;;;;;;;;;;5113865;28;20031;-75
2024/03/17 03:06:53;;;;;;;13.32;7.70;;;;;;;;;;5113520;28;20044;-74
2024/03/17 03:09:25;;;;;;;14.68;7.78;;;;;;;;;;5112694;28;20024;-73
2024/03/17 03:11:51;;;;;;;17.33;8.32;;;;;;;;;;5114069;28;20394;-75
2024/03/17 03:14:17;;;;;;;17.58;8.50;;;;;;;;;;5113914;28;20020;-73
2024/03/17 03:16:44;;;;;;;15.07;8.57;;;;;;;;;;5113781;27;20069;-74
2024/03/17 03:19:10;;;;;;;16.40;8.10;;;;;;;;;;5112159;28;20077;-74
2024/03/17 03:21:36;;;;;;;13.10;7.90;;;;;;;;;;5113826;28;20055;-74
2024/03/17 03:24:02;;;;;;;15.43;8.85;;;;;;;;;;5113652;28;20097;-74
2024/03/17 03:26:28;;;;;;;15.18;7.45;;;;;;;;;;5113758;27;20024;-73
2024/03/17 03:28:55;;;;;;;13.02;7.70;;;;;;;;;;5112310;28;20114;-74
2024/03/17 03:31:21;;;;;;;20.15;9.15;;;;;;;;;;5113480;27;20024;-74
2024/03/17 03:33:48;;;;;;;13.82;7.95;;;;;;;;;;5113619;28;20463;-75
2024/03/17 03:36:14;;;;;;;15.65;8.68;;;;;;;;;;5113550;28;20031;-74
2024/03/17 03:38:41;;;;;;;16.42;8.48;;;;;;;;;;5113613;28;20367;-75
2024/03/17 03:41:11;;;;;;;15.63;9.23;;;;;;;;;;5113443;28;20031;-75
2024/03/17 03:43:37;;;;;;;;;;;;;;;;;;5113543;28;20053;-74
2024/03/17 03:46:04;;;;;;;14.93;8.73;;;;;;;;;;5112986;28;19903;-74
2024/03/17 03:48:30;;;;;;;13.40;8.00;;;;;;;;;;5113123;28;20088;-74
2024/03/17 03:50:56;;;;;;;15.45;8.82;;;;;;;;;;5111854;28;20027;-75
2024/03/17 03:53:22;;;;;;;16.88;9.65;;;;;;;;;;5111455;28;20023;-75
2024/03/17 03:55:48;;;;;;;16.23;9.20;;;;;;;;;;5111673;28;20066;-75
2024/03/17 03:58:15;;;;;;;17.55;8.50;;;;;;;;;;5112772;28;20027;-73
2024/03/17 04:00:41;;;;;;;16.20;8.73;;;;;;;;;;5111696;28;20421;-74
2024/03/17 04:03:07;;;;;;;14.45;8.45;;;;;;;;;;5112464;28;20024;-74
2024/03/17 04:05:34;;;;;;;14.60;9.70;;;;;;;;;;5111871;28;20117;-74
2024/03/17 04:08:00;;;;;;;18.15;9.68;;;;;;;;;;5111566;28;20038;-73
2024/03/17 04:10:26;;;;;;;17.10;10.30;;;;;;;;;;5112705;28;20124;-75
2024/03/17 04:12:53;;;;;;;15.13;9.38;;;;;;;;;;5112806;27;20023;-73
2024/03/17 04:15:19;;;;;;;17.67;11.13;;;;;;;;;;5110988;28;20034;-73
2024/03/17 04:17:45;;;;;;;16.70;10.48;;;;;;;;;;5112818;28;20038;-73
2024/03/17 04:20:15;;;;;;;17.33;10.10;;;;;;;;;;5111187;28;20022;-73
2024/03/17 04:22:44;;;;;;;15.90;9.75;;;;;;;;;;5112395;28;20473;-74
2024/03/17 04:25:11;;;;;;;19.50;10.02;;;;;;;;;;5112414;28;20020;-74
2024/03/17 04:27:37;;;;;;;19.95;10.05;;;;;;;;;;5111277;28;20032;-73
2024/03/17 04:30:05;;;;;;;17.38;9.90;;;;;;;;;;5111217;28;20027;-73
2024/03/17 04:32:31;;;;;;;16.17;9.60;;;;;;;;;;5112561;28;20107;-74
2024/03/17 04:34:57;;;;;;;17.23;10.90;;;;;;;;;;5112592;28;20031;-73
2024/03/17 04:37:24;;;;;;;18.63;10.98;;;;;;;;;;5112260;28;20035;-73
2024/03/17 04:39:51;;;;;;;16.00;9.27;;;;;;;;;;5112559;28;20099;-74
2024/03/17 04:42:20;;;;;;;20.20;10.32;;;;;;;;;;5111898;28;20403;-74
2024/03/17 04:44:46;;;;;;;20.63;10.73;;;;;;;;;;5111160;28;20035;-73
2024/03/17 04:47:13;;;;;;;16.85;10.35;;;;;;;;;;5110782;28;20031;-74
2024/03/17 04:49:42;;;;;;;16.15;10.38;;;;;;;;;;5112510;28;20055;-73
2024/03/17 04:52:09;;;;;;;14.80;9.32;;;;;;;;;;5111961;28;20015;-73
2024/03/17 04:54:35;;;;;;;16.20;8.70;;;;;;;;;;5112367;28;20540;-74
2024/03/17 04:57:01;;;;;;;16.05;10.20;;;;;;;;;;5112325;28;20077;-74
2024/03/17 04:59:27;;;;;;;17.63;11.38;;;;;;;;;;5110752;28;20027;-74
2024/03/17 05:01:53;;;;;;;15.20;9.25;;;;;;;;;;5112374;28;20024;-74
2024/03/17 05:04:20;;;;;;;15.80;9.80;;;;;;;;;;5112086;28;20023;-73
2024/03/17 05:06:46;;;;;;;18.13;11.70;;;;;;;;;;5112371;28;20085;-74
2024/03/17 05:09:15;;;;;;;22.15;12.20;;;;;;;;;;5111929;28;20077;-73
2024/03/17 05:11:41;;;;;;;21.42;12.23;;;;;;;;;;5112507;28;20031;-74
2024/03/17 05:14:08;;;;;;;17.35;10.27;;;;;;;;;;5112444;28;20072;-74
2024/03/17 05:16:34;;;;;;;17.27;9.93;;;;;;;;;;5113116;28;20020;-74
2024/03/17 05:19:00;;;;;;;20.85;12.48;;;;;;;;;;5114750;28;20039;-74
2024/03/17 05:21:29;;;;;;;22.85;12.55;;;;;;;;;;5114532;28;20028;-75
2024/03/17 05:23:56;;;;;;;15.30;10.65;;;;;;;;;;5114851;28;20059;-74
2024/03/17 05:26:22;;;;;;;19.90;12.55;;;;;;;;;;5114370;28;20020;-74
2024/03/17 05:28:48;;;;;;;17.40;11.63;;;;;;;;;;5115886;28;20032;-74
2024/03/17 05:31:17;;;;;;;17.00;11.10;;;;;;;;;;5114380;28;20030;-75
2024/03/17 05:33:43;;;;;;;16.45;11.50;;;;;;;;;;5114532;28;20099;-73
2024/03/17 05:36:09;;;;;;;17.80;10.57;;;;;;;;;;5115856;28;20022;-75
2024/03/17 05:38:35;;;;;;;17.92;11.75;;;;;;;;;;5115750;28;20080;-73
2024/03/17 05:41:05;;;;;;;12.50;9.07;;;;;;;;;;5115790;27;20102;-73
2024/03/17 05:43:38;;;;;;;17.17;8.77;;;;;;;;;;5115392;28;20028;-74
2024/03/17 05:46:06;;;;;;;18.23;11.88;;;;;;;;;;5114219;28;20024;-74
2024/03/17 05:48:32;;;;;;;18.45;12.27;;;;;;;;;;5114310;28;20031;-73
2024/03/17 05:50:58;;;;;;;18.25;12.18;;;;;;;;;;5114262;28;20019;-73
2024/03/17 05:53:24;;;;;;;17.00;11.73;;;;;;;;;;5113887;28;20530;-73
2024/03/17 05:55:50;;;;;;;26.52;13.65;;;;;;;;;;5115070;28;20356;-73
2024/03/17 05:58:16;;;;;;;19.33;11.65;;;;;;;;;;5115069;28;20463;-74
2024/03/17 06:00:43;;;;;;;21.75;11.93;;;;;;;;;;5115586;28;20119;-73
2024/03/17 06:03:09;;;;;;;22.52;13.50;;;;;;;;;;5113925;28;20084;-73
2024/03/17 06:05:36;;;;;;;15.65;11.40;;;;;;;;;;5113456;28;20052;-74
2024/03/17 06:08:04;;;;;;;27.20;13.38;;;;;;;;;;5113494;28;20175;-74
2024/03/17 06:10:30;;;;;;;18.52;12.25;;;;;;;;;;5114478;28;20442;-73
2024/03/17 06:13:00;;;;;;;23.52;15.15;;;;;;;;;;5115063;28;20027;-75
2024/03/17 06:15:26;;;;;;;20.02;13.63;;;;;;;;;;5113413;28;20019;-73
2024/03/17 06:17:53;;;;;;;20.13;13.00;;;;;;;;;;5113658;28;20031;-73
2024/03/17 06:20:23;;;;;;;22.08;13.98;;;;;;;;;;5114437;27;20360;-74
2024/03/17 06:22:49;;;;;;;;;;;;;;;;;;5115338;28;20098;-74
2024/03/17 06:25:15;;;;;;;19.88;13.10;;;;;;;;;;5113243;28;19943;-74
2024/03/17 06:27:42;;;;;;;21.35;15.45;;;;;;;;;;5112780;28;20023;-74
2024/03/17 06:30:13;;;;;;;24.77;14.23;;;;;;;;;;5114559;28;20047;-74
2024/03/17 06:32:39;;;;;;;20.75;13.82;;;;;;;;;;5113340;28;20035;-75
2024/03/17 06:35:06;;;;;;;20.92;14.23;;;;;;;;;;5113292;28;20024;-74
2024/03/17 06:37:32;;;;;;;28.23;16.25;;;;;;;;;;5112953;28;20031;-74
2024/03/17 06:39:58;;;;;;;21.98;15.82;;;;;;;;;;5114585;28;20023;-74
2024/03/17 06:42:23;;;;;;;26.50;15.05;;;;;;;;;;5114151;28;20031;-73
2024/03/17 06:44:50;;;;;;;22.27;14.43;;;;;;;;;;5114469;27;20352;-73
2024/03/17 06:47:17;;;;;;;23.45;14.73;;;;;;;;;;5112762;28;20023;-75
2024/03/17 06:49:43;;;;;;;27.27;15.85;;;;;;;;;;5114376;28;20019;-73
2024/03/17 06:52:09;;;;;;;18.73;12.32;;;;;;;;;;5112919;28;20065;-74
2024/03/17 06:54:36;;;;;;;21.67;14.02;;;;;;;;;;5113999;28;20487;-74
2024/03/17 06:57:02;;;;;;;22.98;14.93;;;;;;;;;;5112822;28;20429;-74
2024/03/17 06:59:28;;;;;;;19.10;13.88;;;;;;;;;;5113997;28;20023;-74
2024/03/17 07:01:54;;;;;;;23.13;12.70;;;;;;;;;;5112769;28;20066;-74
2024/03/17 07:04:20;;;;;;;26.23;14.52;;;;;;;;;;5112768;28;20023;-74
2024/03/17 07:06:47;;;;;;;21.67;13.82;;;;;;;;;;5112694;28;20055;-74
2024/03/17 07:09:13;;;;;;;17.85;12.75;;;;;;;;;;5114067;28;20031;-74
2024/03/17 07:11:39;;;;;;;24.98;14.35;;;;;;;;;;5113414;28;20086;-74
2024/03/17 07:14:05;;;;;;;18.38;12.13;;;;;;;;;;5113949;28;20024;-74
2024/03/17 07:16:31;;;;;;;20.77;12.50;;;;;;;;;;5113873;28;20081;-74
2024/03/17 07:18:59;;;;;;;19.98;13.75;;;;;;;;;;5112477;28;20038;-73
2024/03/17 07:21:25;;;;;;;20.77;13.13;;;;;;;;;;5112136;28;20077;-74
2024/03/17 07:23:51;;;;;;;16.33;10.52;;;;;;;;;;5112391;28;20019;-75
2024/03/17 07:26:17;;;;;;;15.48;9.90;;;;;;;;;;5113509;28;20032;-73
2024/03/17 07:28:44;;;;;;;17.40;11.00;;;;;;;;;;5113411;28;20061;-73
2024/03/17 07:31:11;;;;;;;19.30;13.45;;;;;;;;;;5112191;28;20024;-73
2024/03/17 07:33:37;;;;;;;18.80;12.55;;;;;;;;;;5113144;28;20023;-73
2024/03/17 07:36:05;;;;;;;17.90;12.32;;;;;;;;;;5112087;28;20375;-73
2024/03/17 07:38:31;;;;;;;16.92;10.35;;;;;;;;;;5111664;28;20028;-73
2024/03/17 07:40:58;;;;;;;16.02;11.40;;;;;;;;;;5113203;28;20030;-72
2024/03/17 07:43:24;;;;;;;13.50;8.73;;;;;;;;;;5111544;28;20027;-74
2024/03/17 07:46:00;;;;;;;15.90;11.10;;;;;;;;;;5113176;28;20015;-74
2024/03/17 07:48:26;;;;;;;15.27;11.32;;;;;;;;;;5112875;28;20038;-74
2024/03/17 07:50:56;;;;;;;14.93;9.63;;;;;;;;;;5111772;28;20372;-74
2024/03/17 07:53:24;;;;;;;15.55;10.70;;;;;;;;;;5112850;28;20088;-73
2024/03/17 07:55:57;;;;;;;11.70;8.20;;;;;;;;;;5111721;28;20020;-74
2024/03/17 07:58:23;;;;;;;16.95;11.27;;;;;;;;;;5112682;28;20027;-74
2024/03/17 08:00:49;;;;;;;15.98;10.07;;;;;;;;;;5112682;28;20047;-71
2024/03/17 08:03:15;;;;;;;8.88;5.57;;;;;;;;;;5113112;28;20047;-72
2024/03/17 08:05:42;;;;;;;13.93;5.70;;;;;;;;;;5112854;28;20043;-72
2024/03/17 08:08:08;;;;;;;7.28;4.93;;;;;;;;;;5113239;28;20055;-71
2024/03/17 08:10:38;;;;;;;8.63;5.78;;;;;;;;;;5111673;28;20047;-71
2024/03/17 08:13:05;;;;;;;11.07;5.85;;;;;;;;;;5111466;28;20047;-70
2024/03/17 08:15:31;;;;;;;11.73;5.97;;;;;;;;;;5112553;28;20447;-71
2024/03/17 08:17:57;;;;;;;7.18;4.63;;;;;;;;;;5112773;28;20023;-71
2024/03/17 08:20:23;;;;;;;9.02;5.38;;;;;;;;;;5111232;28;20047;-71
2024/03/17 08:22:49;;;;;;;10.88;5.43;;;;;;;;;;5112755;28;20020;-71
2024/03/17 08:25:15;;;;;;;9.02;5.18;;;;;;;;;;5112701;28;20027;-71
2024/03/17 08:27:41;;;;;;;8.45;4.38;;;;;;;;;;5112070;28;20038;-72
2024/03/17 08:30:10;;;;;;;8.27;4.07;;;;;;;;;;5112367;28;20388;-71
2024/03/17 08:32:36;;;;;;;6.57;4.13;;;;;;;;;;5112296;28;20032;-70
2024/03/17 08:35:02;;;;;;;8.35;5.57;;;;;;;;;;5112244;28;20446;-73
2024/03/17 08:37:28;;;;;;;10.40;5.88;;;;;;;;;;5112305;28;20083;-71
2024/03/17 08:39:54;;;;;;;8.95;4.93;;;;;;;;;;5112745;28;20051;-71
2024/03/17 08:42:20;;;;;;;8.77;4.82;;;;;;;;;;5112550;28;20028;-72
2024/03/17 08:44:48;;;;;;;8.00;4.57;;;;;;;;;;5111982;28;20416;-71
2024/03/17 08:47:15;;;;;;;7.28;4.20;;;;;;;;;;5112457;28;20024;-71
2024/03/17 08:49:41;;;;;;;8.35;4.95;;;;;;;;;;5112275;28;20028;-72
2024/03/17 08:52:07;;;;;;;8.45;4.15;;;;;;;;;;5114667;28;20024;-71
2024/03/17 08:54:33;;;;;;;8.05;4.10;;;;;;;;;;5116576;28;20088;-71
2024/03/17 08:56:59;;;;;;;7.30;4.50;;;;;;;;;;5116291;28;20305;-71
2024/03/17 08:59:25;;;;;;;9.00;4.28;;;;;;;;;;5116678;27;20016;-72
2024/03/17 09:01:51;;;;;;;7.20;3.70;;;;;;;;;;5116443;28;20019;-72
2024/03/17 09:04:17;;;;;;;9.63;4.53;;;;;;;;;;5116298;28;20023;-72
2024/03/17 09:06:43;;;;;;;8.75;4.80;;;;;;;;;;5116181;28;20040;-72
2024/03/17 09:09:09;;;;;;;7.28;4.03;;;;;;;;;;5116252;28;20043;-71
2024/03/17 09:11:35;;;;;;;8.70;4.60;;;;;;;;;;5116083;28;20390;-72
2024/03/17 09:14:02;;;;;;;8.13;4.68;;;;;;;;;;5116200;27;20348;-71
2024/03/17 09:16:30;;;;;;;8.68;4.75;;;;;;;;;;5114396;28;20020;-72
2024/03/17 09:18:56;;;;;;;7.57;4.68;;;;;;;;;;5116267;28;20019;-72
2024/03/17 09:21:23;;;;;;;8.80;5.18;;;;;;;;;;5116207;28;20182;-72
2024/03/17 09:23:49;;;;;;;8.15;4.35;;;;;;;;;;5115804;28;20024;-72
2024/03/17 09:26:17;;;;;;;9.00;5.50;;;;;;;;;;5115008;28;20350;-74
2024/03/17 09:28:43;;;;;;;8.98;5.00;;;;;;;;;;5115583;28;20019;-74
2024/03/17 09:31:11;;;;;;;11.82;6.25;;;;;;;;;;5115804;28;20015;-74
2024/03/17 09:33:38;;;;;;;10.52;6.57;;;;;;;;;;5115552;28;20023;-74
2024/03/17 09:36:10;;;;;;;8.40;5.53;;;;;;;;;;5115741;28;20083;-73
2024/03/17 09:38:36;;;;;;;11.75;6.72;;;;;;;;;;5115381;28;20467;-74
2024/03/17 09:41:03;;;;;;;9.80;6.40;;;;;;;;;;5114363;28;20034;-74
2024/03/17 09:43:29;;;;;;;8.95;6.70;;;;;;;;;;5115183;27;20015;-74
2024/03/17 09:45:58;;;;;;;10.38;7.18;;;;;;;;;;5115557;28;20016;-73
2024/03/17 09:48:27;;;;;;;11.18;5.10;;;;;;;;;;5114101;28;20441;-74
2024/03/17 09:51:02;;;;;;;9.98;5.70;;;;;;;;;;5115693;28;20133;-73
2024/03/17 09:53:29;;;;;;;10.38;6.47;;;;;;;;;;5113953;28;20024;-73
2024/03/17 09:55:59;;;;;;;9.57;5.15;;;;;;;;;;5115803;28;20115;-74
2024/03/17 09:58:25;;;;;;;11.98;5.95;;;;;;;;;;5115367;28;20063;-74
2024/03/17 10:00:51;;;;;;;6.15;3.03;;;;;;;;;;5113721;28;20466;-73
2024/03/17 10:03:36;;;;;;;11.00;5.38;;;;;;;;;;5114011;27;20121;-73
2024/03/17 10:06:02;;;;;;;8.50;5.70;;;;;;;;;;5115112;28;20043;-74
2024/03/17 10:08:28;;;;;;;12.20;6.63;;;;;;;;;;5113845;28;20038;-74
2024/03/17 10:10:54;;;;;;;9.18;5.03;;;;;;;;;;5113805;28;20414;-74
2024/03/17 10:13:21;;;;;;;10.18;7.05;;;;;;;;;;5113866;28;20479;-73
2024/03/17 10:15:50;;;;;;;9.43;6.38;;;;;;;;;;5113590;28;20412;-74
2024/03/17 10:18:23;;;;;;;13.93;7.07;;;;;;;;;;5113973;28;20053;-74
2024/03/17 10:20:56;;;;;;;11.07;6.85;;;;;;;;;;5114961;28;20031;-74
2024/03/17 10:23:22;;;;;;;9.80;5.32;;;;;;;;;;5115223;28;20020;-74
2024/03/17 10:25:48;;;;;;;9.40;6.05;;;;;;;;;;5113352;28;20073;-74
2024/03/17 10:28:15;;;;;;;11.38;5.90;;;;;;;;;;5114822;28;20063;-74
2024/03/17 10:30:42;;;;;;;10.63;6.82;;;;;;;;;;5114435;28;20030;-74
2024/03/17 10:33:09;;;;;;;10.35;6.22;;;;;;;;;;5114605;28;20098;-74
2024/03/17 10:35:40;;;;;;;13.40;7.53;;;;;;;;;;5114388;28;20027;-74
2024/03/17 10:38:06;;;;;;;10.27;6.45;;;;;;;;;;5114681;28;20022;-74
2024/03/17 10:40:36;;;;;;;10.05;4.90;;;;;;;;;;5114368;28;20095;-74
2024/03/17 10:43:02;;;;;;;12.15;6.45;;;;;;;;;;5114616;28;20026;-74
2024/03/17 10:45:35;;;;;;;15.35;8.52;;;;;;;;;;5114760;28;20032;-73
2024/03/17 10:48:03;;;;;;;9.07;5.32;;;;;;;;;;5113016;28;20500;-74
2024/03/17 10:50:30;;;;;;;14.27;8.13;;;;;;;;;;5113014;28;20023;-74
2024/03/17 10:52:59;;;;;;;9.80;6.32;;;;;;;;;;5113067;28;20055;-74
2024/03/17 10:55:25;;;;;;;10.35;5.53;;;;;;;;;;5114244;28;20468;-75
2024/03/17 10:57:52;;;;;;;13.43;5.63;;;;;;;;;;5113973;28;20028;-74
2024/03/17 11:00:21;;;;;;;9.65;5.65;;;;;;;;;;5114144;28;20019;-74
2024/03/17 11:02:48;;;;;;;10.50;5.97;;;;;;;;;;5112527;28;20051;-74
2024/03/17 11:05:22;;;;;;;13.18;8.38;;;;;;;;;;5112228;28;20115;-73
2024/03/17 11:07:49;;;;;;;10.35;5.53;;;;;;;;;;5113733;28;20037;-73
2024/03/17 11:10:19;;;;;;;10.27;6.22;;;;;;;;;;5112687;28;20034;-74
2024/03/17 11:12:49;;;;;;;12.27;6.73;;;;;;;;;;5112158;28;20024;-73
2024/03/17 11:15:58;;;;;;;8.52;5.55;;;;;;;;;;5113201;28;20485;-74
2024/03/17 11:18:19;;;;;;;13.32;7.70;;;;;;;;;;5111207;28;20051;-73
2024/03/17 11:20:59;;;;;;;13.13;7.88;;;;;;;;;;5113376;28;20020;-73
2024/03/17 11:23:30;;;;;;;11.73;8.10;;;;;;;;;;5112160;28;20031;-74
2024/03/17 11:25:55;;;;;;;;;;;;;;;;;;5113660;28;20092;-73
2024/03/17 11:28:40;;;;;;;12.40;6.40;;;;;;;;;;5113547;28;20358;-73
2024/03/17 11:31:26;;;;;;;11.60;6.75;;;;;;;;;;5113698;28;20027;-73
2024/03/17 11:33:53;;;;;;;12.48;7.60;;;;;;;;;;5113115;28;20024;-74
2024/03/17 11:36:22;;;;;;;10.23;6.35;;;;;;;;;;5113779;28;20072;-73
2024/03/17 11:38:54;;;;;;;13.10;7.07;;;;;;;;;;5113334;28;20345;-74
2024/03/17 11:41:40;;;;;;;15.75;7.75;;;;;;;;;;5112070;28;20454;-74
2024/03/17 11:44:23;;;;;;;13.65;6.72;;;;;;;;;;5112147;28;20459;-73
2024/03/17 11:46:55;;;;;;;8.63;4.95;;;;;;;;;;5113028;28;20031;-72
2024/03/17 11:49:23;;;;;;;12.02;7.75;;;;;;;;;;5113156;28;20015;-73
2024/03/17 11:51:49;;;;;;;10.25;7.47;;;;;;;;;;5111702;28;20118;-73
2024/03/17 11:54:18;;;;;;;15.32;8.65;;;;;;;;;;5113173;28;20034;-72
2024/03/17 11:56:45;;;;;;;13.73;7.80;;;;;;;;;;5111636;28;20406;-72
2024/03/17 11:59:11;;;;;;;11.32;5.80;;;;;;;;;;5113110;28;20486;-73
2024/03/17 12:01:37;;;;;;;13.60;8.68;;;;;;;;;;5111670;28;20023;-73
2024/03/17 12:04:07;;;;;;;14.52;8.75;;;;;;;;;;5111717;28;20084;-72
2024/03/17 12:06:34;;;;;;;14.73;8.40;;;;;;;;;;5111372;28;20432;-74
2024/03/17 12:09:10;;;;;;;13.00;8.23;;;;;;;;;;5112984;28;20051;-73
2024/03/17 12:11:37;;;;;;;10.55;7.30;;;;;;;;;;5112616;28;20046;-73
2024/03/17 12:14:29;;;;;;;10.63;5.57;;;;;;;;;;5111617;28;20015;-73
2024/03/17 12:16:59;;;;;;;11.65;8.93;;;;;;;;;;5108608;28;20036;-74
2024/03/17 12:19:27;;;;;;;13.00;7.78;;;;;;;;;;5111157;28;20031;-72
2024/03/17 12:21:53;;;;;;;12.70;6.60;;;;;;;;;;5111216;28;20024;-73
2024/03/17 12:24:21;;;;;;;10.45;6.22;;;;;;;;;;5111507;28;20019;-73
2024/03/17 12:26:47;;;;;;;13.60;7.95;;;;;;;;;;5111917;28;20402;-74
2024/03/17 12:29:23;;;;;;;14.20;9.60;;;;;;;;;;5111276;28;20379;-74
2024/03/17 12:31:50;;;;;;;9.43;6.07;;;;;;;;;;5112583;28;20072;-72
2024/03/17 12:34:16;;;;;;;6.97;3.78;;;;;;;;;;5112959;28;20467;-72
2024/03/17 12:36:44;;;;;;;13.95;8.70;;;;;;;;;;5112419;28;20026;-73
2024/03/17 12:39:11;;;;;;;12.93;8.80;;;;;;;;;;5111382;28;20036;-74
2024/03/17 12:41:37;;;;;;;14.05;7.72;;;;;;;;;;5111040;28;20119;-72
2024/03/17 12:44:03;;;;;;;14.05;8.50;;;;;;;;;;5112493;28;20023;-74
2024/03/17 12:46:29;;;;;;;13.95;7.88;;;;;;;;;;5111135;28;20120;-74
2024/03/17 12:48:59;;;;;;;10.55;7.88;;;;;;;;;;5112035;28;20024;-75
2024/03/17 12:51:25;;;;;;;16.58;8.57;;;;;;;;;;5111167;28;20356;-75
2024/03/17 12:54:11;;;;;;;13.07;8.27;;;;;;;;;;5110880;28;20027;-76
2024/03/17 13:02:13;;;;;;;15.45;7.40;;;;;;;;;;5112414;28;20168;-74
2024/03/17 13:04:39;;;;;;;14.20;8.45;;;;;;;;;;5110740;28;20352;-74
2024/03/17 13:07:12;;;;;;;10.88;6.45;;;;;;;;;;5112000;28;20123;-73
2024/03/17 13:09:38;;;;;;;10.35;7.10;;;;;;;;;;5110812;28;20044;-73
2024/03/17 13:12:15;;;;;;;14.45;8.60;;;;;;;;;;5112436;28;20012;-74
2024/03/17 13:14:41;;;;;;;14.13;8.75;;;;;;;;;;5110638;28;20034;-74
2024/03/17 13:17:07;;;;;;;11.90;7.07;;;;;;;;;;5110903;28;20028;-73
2024/03/17 13:19:36;;;;;;;9.88;5.68;;;;;;;;;;5112210;28;20019;-73
2024/03/17 13:22:02;;;;;;;12.85;7.72;;;;;;;;;;5110682;28;20118;-74
2024/03/17 13:24:28;;;;;;;9.02;6.38;;;;;;;;;;5112015;28;20055;-72
2024/03/17 13:26:56;;;;;;;14.27;8.98;;;;;;;;;;5110664;28;20043;-74
2024/03/17 13:29:22;;;;;;;8.63;5.85;;;;;;;;;;5112028;28;20031;-74
2024/03/17 13:31:48;;;;;;;15.23;8.75;;;;;;;;;;5112256;28;20038;-74
2024/03/17 13:34:14;;;;;;;12.27;6.43;;;;;;;;;;5112440;28;20023;-74
2024/03/17 13:36:40;;;;;;;13.95;6.82;;;;;;;;;;5112119;28;20381;-73
2024/03/17 13:39:09;;;;;;;16.77;8.80;;;;;;;;;;5114341;28;20066;-73
2024/03/17 13:41:35;;;;;;;13.05;6.13;;;;;;;;;;5114302;28;20482;-74
2024/03/17 13:44:01;;;;;;;14.55;7.88;;;;;;;;;;5114117;28;20028;-74
2024/03/17 13:46:27;;;;;;;14.77;8.07;;;;;;;;;;5114348;28;20034;-74
2024/03/17 13:48:53;;;;;;;14.20;7.60;;;;;;;;;;5113941;28;20059;-74
2024/03/17 13:51:19;;;;;;;16.95;7.35;;;;;;;;;;5114307;28;20115;-73
2024/03/17 13:53:45;;;;;;;13.00;7.25;;;;;;;;;;5114072;28;20380;-73
2024/03/17 13:56:13;;;;;;;15.68;7.50;;;;;;;;;;5115634;28;20469;-74
2024/03/17 13:58:39;;;;;;;13.00;7.70;;;;;;;;;;5115514;28;20030;-73
2024/03/17 14:01:05;;;;;;;15.02;8.73;;;;;;;;;;5115188;28;20028;-73
2024/03/17 14:03:32;;;;;;;14.60;8.85;;;;;;;;;;5114815;28;20028;-74
2024/03/17 14:05:58;;;;;;;11.55;6.68;;;;;;;;;;5114885;28;20139;-74
2024/03/17 14:08:25;;;;;;;19.42;9.48;;;;;;;;;;5115302;28;20024;-74
2024/03/17 14:10:51;;;;;;;18.75;9.65;;;;;;;;;;5115000;28;20016;-74
2024/03/17 14:13:17;;;;;;;18.05;8.73;;;;;;;;;;5115270;28;20095;-74
2024/03/17 14:15:43;;;;;;;12.27;6.40;;;;;;;;;;5113540;28;20081;-73
2024/03/17 14:18:10;;;;;;;18.75;9.10;;;;;;;;;;5115205;28;20428;-73
2024/03/17 14:20:37;;;;;;;14.35;7.25;;;;;;;;;;5113672;28;20026;-73
2024/03/17 14:23:03;;;;;;;15.75;6.55;;;;;;;;;;5114842;28;20061;-74
2024/03/17 14:25:29;;;;;;;14.88;8.63;;;;;;;;;;5114936;28;20028;-74
2024/03/17 14:27:55;;;;;;;14.68;8.82;;;;;;;;;;5113192;28;20034;-74
2024/03/17 14:30:21;;;;;;;11.75;5.88;;;;;;;;;;5113496;28;20413;-73
2024/03/17 14:32:47;;;;;;;12.43;7.80;;;;;;;;;;5114584;28;20047;-74
2024/03/17 14:35:17;;;;;;;17.77;9.15;;;;;;;;;;5114764;28;20073;-72
2024/03/17 14:37:47;;;;;;;16.48;8.85;;;;;;;;;;5114611;28;20048;-73